Time;durP1;ratioP1;P1;durP2;ratioP2;P2;SDS_P1;SDS_P2;PMS_P1;PMS_P2;Temp;Humidity;BMP_temperature;BMP_pressure;BME280_temperature;BME280_humidity;BME280_pressure;Samples;Min_cycle;Max_cycle;Signal;HPM_P1;HPM_P2
2022/12/05 00:05:00;;;;;;;9.35;4.38;;;;;;;-3.38;85.03;102811.75;10612748;28;20035;-79
2022/12/05 00:10:04;;;;;;;8.15;4.00;;;;;;;-3.37;85.20;102803.56;10612980;27;20409;-79
2022/12/05 00:15:11;;;;;;;7.90;5.07;;;;;;;-3.21;85.28;102796.81;10612424;27;20399;-79
2022/12/05 00:20:17;;;;;;;9.05;4.00;;;;;;;-3.08;84.97;102802.78;10612803;27;20465;-79
2022/12/05 00:25:23;;;;;;;7.53;4.03;;;;;;;-3.04;84.67;102798.84;10634275;27;20035;-79
2022/12/05 00:30:27;;;;;;;7.45;4.30;;;;;;;-3.04;84.17;102793.47;10558835;27;20046;-78
2022/12/05 00:35:29;;;;;;;8.38;4.60;;;;;;;-3.19;84.51;102787.63;10616926;27;20505;-79
2022/12/05 00:40:35;;;;;;;9.40;4.40;;;;;;;-3.42;84.36;102781.66;10596647;28;20036;-79
2022/12/05 00:45:41;;;;;;;8.10;4.18;;;;;;;-3.44;84.50;102780.94;10601652;27;20031;-79
2022/12/05 00:50:43;;;;;;;9.60;4.35;;;;;;;-3.25;84.59;102777.47;10602332;27;20046;-79
2022/12/05 00:55:49;;;;;;;8.70;4.25;;;;;;;-3.11;84.90;102779.75;10625196;27;20032;-79
2022/12/05 01:00:55;;;;;;;10.20;4.28;;;;;;;-3.24;84.44;102767.56;10595075;28;20043;-79
2022/12/05 01:06:00;;;;;;;8.75;4.38;;;;;;;-3.25;84.13;102771.25;10603581;28;20036;-79
2022/12/05 01:11:04;;;;;;;9.32;4.43;;;;;;;-3.19;84.36;102765.31;10569566;28;20040;-79
2022/12/05 01:16:12;;;;;;;9.88;5.22;;;;;;;-3.29;84.07;102762.63;10584688;28;20086;-79
2022/12/05 01:21:15;;;;;;;8.38;4.45;;;;;;;-3.46;84.09;102765.97;10569154;28;20532;-79
2022/12/05 01:26:19;;;;;;;9.27;4.35;;;;;;;-3.33;84.70;102766.56;10569882;28;20036;-79
2022/12/05 01:31:25;;;;;;;8.60;4.40;;;;;;;-3.42;85.28;102762.88;10598421;28;20039;-79
2022/12/05 01:36:27;;;;;;;9.80;4.00;;;;;;;-3.45;85.17;102759.63;10591114;28;20040;-79
2022/12/05 01:41:32;;;;;;;7.38;4.05;;;;;;;-3.39;85.92;102761.75;10575841;28;20048;-79
2022/12/05 01:46:36;;;;;;;7.28;4.40;;;;;;;-3.35;85.55;102761.31;10601275;28;20562;-79
2022/12/05 01:51:42;;;;;;;7.63;4.20;;;;;;;-3.20;85.35;102750.19;10568704;28;20044;-77
2022/12/05 01:56:49;;;;;;;7.28;4.30;;;;;;;-3.37;85.13;102744.50;10592994;28;20417;-79
2022/12/05 02:01:51;;;;;;;7.20;4.60;;;;;;;-3.21;85.33;102737.75;10550869;28;20040;-79
2022/12/05 02:06:53;;;;;;;6.85;4.10;;;;;;;-3.13;84.59;102740.59;10590586;28;20411;-78
2022/12/05 02:12:01;;;;;;;9.90;4.65;;;;;;;-3.23;85.13;102740.59;10588281;28;20039;-78
2022/12/05 02:17:21;;;;;;;6.20;4.07;;;;;;;-3.33;84.15;102743.25;10585596;27;20044;-80
2022/12/05 02:22:53;;;;;;;9.27;4.38;;;;;;;-3.07;84.63;102734.66;10576206;28;20044;-79
2022/12/05 02:28:20;;;;;;;9.15;4.78;;;;;;;-3.31;83.79;102728.84;10574701;27;20036;-78
2022/12/05 02:33:50;;;;;;;9.57;4.90;;;;;;;-3.24;84.43;102721.94;10556739;28;20055;-79
2022/12/05 02:39:06;;;;;;;8.40;4.43;;;;;;;-3.17;84.42;102725.75;10597950;27;20050;-78
2022/12/05 02:44:13;;;;;;;7.72;4.45;;;;;;;-3.10;84.11;102719.69;10629985;27;20066;-79
2022/12/05 02:49:20;;;;;;;7.00;4.13;;;;;;;-3.25;83.50;102720.25;10605989;28;20070;-79
2022/12/05 02:54:25;;;;;;;6.75;4.25;;;;;;;-3.22;83.65;102703.84;10615275;28;20059;-78
2022/12/05 02:59:28;;;;;;;8.23;3.70;;;;;;;-3.23;83.78;102707.53;10590767;27;20040;-78
2022/12/05 03:04:30;;;;;;;7.68;4.53;;;;;;;-3.30;83.39;102695.63;10573585;28;20044;-79
2022/12/05 03:09:34;;;;;;;8.05;3.95;;;;;;;-3.31;83.36;102704.66;10592090;27;20043;-79
2022/12/05 03:14:42;;;;;;;8.05;4.85;;;;;;;-3.14;84.04;102699.44;10597442;28;20043;-78
2022/12/05 03:20:05;;;;;;;7.80;4.10;;;;;;;-2.94;83.58;102700.34;10594750;28;20043;-78
2022/12/05 03:25:08;;;;;;;9.40;4.78;;;;;;;-2.97;83.20;102700.59;10609341;28;20054;-78
2022/12/05 03:30:13;;;;;;;8.40;4.68;;;;;;;-2.93;82.80;102691.28;10562232;28;20052;-78
2022/12/05 03:35:30;;;;;;;5.95;4.10;;;;;;;-2.99;82.84;102702.56;10585047;27;20059;-79
2022/12/05 03:40:39;;;;;;;8.35;3.80;;;;;;;-3.15;83.08;102684.34;10600276;28;20078;-76
2022/12/05 03:46:05;;;;;;;6.82;4.10;;;;;;;-3.23;83.45;102689.56;10613598;28;20047;-78
2022/12/05 03:51:09;;;;;;;7.93;4.38;;;;;;;-3.04;83.95;102686.88;10571779;28;20039;-78
2022/12/05 03:56:15;;;;;;;9.25;4.25;;;;;;;-3.05;83.45;102679.81;10595229;28;20047;-77
2022/12/05 04:01:20;;;;;;;10.57;4.95;;;;;;;-3.05;83.60;102676.28;10591566;27;20408;-78
2022/12/05 04:06:32;;;;;;;6.00;3.80;;;;;;;-2.95;83.39;102670.91;10656402;27;20043;-78
2022/12/05 04:11:37;;;;;;;8.38;4.25;;;;;;;-2.85;83.51;102675.28;10565073;28;20044;-78
2022/12/05 04:17:02;;;;;;;8.40;4.22;;;;;;;-2.79;82.75;102677.38;10565211;28;20509;-77
2022/12/05 04:22:04;;;;;;;7.93;3.83;;;;;;;-2.78;83.06;102673.75;10594188;28;20066;-77
2022/12/05 04:27:21;;;;;;;7.53;3.97;;;;;;;-2.98;83.44;102679.25;10612740;28;20035;-77
2022/12/05 04:32:27;;;;;;;9.15;3.70;;;;;;;-2.76;83.48;102684.34;10632600;27;20082;-78
2022/12/05 04:37:32;;;;;;;9.23;3.95;;;;;;;-2.71;83.06;102678.53;10577273;28;20043;-77
2022/12/05 04:42:35;;;;;;;7.30;3.90;;;;;;;-2.53;82.96;102677.63;10557714;28;20544;-81
2022/12/05 04:47:45;;;;;;;9.15;3.92;;;;;;;-2.56;82.62;102663.66;10551874;28;20032;-77
2022/12/05 04:52:49;;;;;;;11.43;4.20;;;;;;;-2.61;82.84;102660.53;10551344;28;20052;-78
2022/12/05 04:57:57;;;;;;;10.98;5.18;;;;;;;-2.67;82.55;102661.97;10606905;28;20436;-77
2022/12/05 05:03:23;;;;;;;10.60;4.63;;;;;;;-2.98;83.18;102666.66;10588568;28;20399;-78
2022/12/05 05:08:30;;;;;;;5.85;3.33;;;;;;;-3.06;83.39;102663.84;10569466;28;20051;-77
2022/12/05 05:13:32;;;;;;;8.45;4.63;;;;;;;-2.98;84.52;102666.66;10569253;28;20048;-77
2022/12/05 05:18:35;;;;;;;9.57;4.55;;;;;;;-2.91;84.21;102664.28;10600766;28;20051;-78
2022/12/05 05:23:37;;;;;;;12.07;5.10;;;;;;;-2.67;84.06;102661.97;10611675;28;20048;-78
2022/12/05 05:28:39;;;;;;;8.20;3.75;;;;;;;-2.70;84.09;102661.41;10593240;28;20051;-78
2022/12/05 05:33:41;;;;;;;7.78;3.83;;;;;;;-2.60;83.83;102663.09;10587689;28;20051;-77
2022/12/05 05:38:46;;;;;;;8.80;4.40;;;;;;;-2.62;84.13;102658.81;10609574;28;20039;-78
2022/12/05 05:43:48;;;;;;;12.45;4.55;;;;;;;-2.69;83.97;102669.31;10601976;28;20505;-78
2022/12/05 05:48:51;;;;;;;11.23;5.47;;;;;;;-2.83;83.83;102673.28;10558144;28;20055;-79
2022/12/05 05:53:54;;;;;;;9.57;5.22;;;;;;;-2.62;84.08;102674.94;10635710;27;20054;-79
2022/12/05 05:59:01;;;;;;;11.60;5.35;;;;;;;-2.56;83.79;102669.88;10620745;27;20051;-79
2022/12/05 06:04:03;;;;;;;11.27;5.18;;;;;;;-2.56;83.39;102669.03;10617985;28;20044;-79
2022/12/05 06:09:06;;;;;;;9.32;4.72;;;;;;;-2.56;83.35;102663.66;10651837;27;20046;-79
2022/12/05 06:14:08;;;;;;;12.88;5.10;;;;;;;-2.37;83.67;102663.59;10639734;27;20050;-79
2022/12/05 06:19:10;;;;;;;9.88;5.10;;;;;;;-2.41;83.01;102664.88;10616887;28;20067;-78
2022/12/05 06:24:12;;;;;;;10.57;4.90;;;;;;;-2.60;83.11;102671.16;10653712;27;20050;-78
2022/12/05 06:29:15;;;;;;;13.98;5.38;;;;;;;-2.53;83.03;102657.97;10659541;27;20051;-79
2022/12/05 06:34:17;;;;;;;10.90;5.13;;;;;;;-2.70;83.58;102661.41;10659208;27;20051;-79
2022/12/05 06:39:19;;;;;;;12.15;5.18;;;;;;;-2.81;83.83;102663.25;10619993;27;20043;-79
2022/12/05 06:44:23;;;;;;;12.55;5.65;;;;;;;-2.66;84.69;102670.88;10581941;28;20051;-78
2022/12/05 06:49:31;;;;;;;14.23;5.00;;;;;;;-2.62;84.53;102672.25;10612533;28;20035;-79
2022/12/05 06:54:33;;;;;;;9.27;5.20;;;;;;;-2.57;84.42;102668.19;10632041;27;20043;-79
2022/12/05 06:59:35;;;;;;;7.75;4.35;;;;;;;-2.70;84.46;102666.78;10657260;27;20521;-79
2022/12/05 07:04:37;;;;;;;12.57;5.82;;;;;;;-2.49;84.64;102662.06;10640088;27;20043;-78
2022/12/05 07:09:50;;;;;;;13.05;5.53;;;;;;;-2.50;84.58;102665.75;10657985;27;20409;-79
2022/12/05 07:14:52;;;;;;;12.30;5.43;;;;;;;-2.41;84.79;102670.25;10657336;27;20417;-78
2022/12/05 07:19:55;;;;;;;12.40;5.65;;;;;;;-2.51;84.51;102666.72;10657105;27;20035;-79
2022/12/05 07:24:57;;;;;;;11.18;5.65;;;;;;;-2.60;85.02;102667.63;10657173;27;20447;-78
2022/12/05 07:29:59;;;;;;;14.20;4.95;;;;;;;-2.38;85.27;102667.25;10649197;27;20044;-78
2022/12/05 07:35:05;;;;;;;9.27;4.93;;;;;;;-2.47;84.99;102668.13;10613198;28;20051;-79
2022/12/05 07:40:33;;;;;;;14.75;5.40;;;;;;;-2.58;85.01;102660.25;10614505;28;20054;-78
2022/12/05 07:45:35;;;;;;;13.60;6.38;;;;;;;-2.46;85.38;102669.81;10624623;27;20050;-79
2022/12/05 07:50:42;;;;;;;14.50;6.50;;;;;;;-2.66;85.32;102670.88;10656534;27;20045;-79
2022/12/05 07:55:44;;;;;;;14.68;6.28;;;;;;;-2.85;85.05;102672.59;10656196;27;20047;-78
2022/12/05 08:00:46;;;;;;;13.98;5.88;;;;;;;-2.80;85.67;102675.69;10619068;27;20036;-79
2022/12/05 08:05:48;;;;;;;13.43;6.10;;;;;;;-2.64;85.72;102674.25;10646442;27;20039;-78
2022/12/05 08:10:50;;;;;;;12.38;6.75;;;;;;;-2.72;85.82;102674.16;10637470;27;20054;-78
2022/12/05 08:15:53;;;;;;;13.90;6.50;;;;;;;-2.79;86.13;102673.84;10600709;27;20042;-79
2022/12/05 08:21:00;;;;;;;13.20;6.88;;;;;;;-2.71;85.91;102678.53;10594770;28;20047;-77
2022/12/05 08:26:08;;;;;;;12.85;5.93;;;;;;;-2.76;86.34;102684.34;10612449;28;20412;-79
2022/12/05 08:31:16;;;;;;;12.75;5.50;;;;;;;-2.75;86.36;102676.13;10612569;28;20058;-78
2022/12/05 08:36:22;;;;;;;10.35;4.78;;;;;;;-2.70;85.92;102673.00;10612682;28;20060;-78
2022/12/05 08:41:27;;;;;;;11.15;4.63;;;;;;;-2.72;86.20;102671.47;10612173;28;20043;-78
2022/12/05 08:46:31;;;;;;;10.05;4.57;;;;;;;-2.78;85.81;102668.38;10609840;27;20051;-78
2022/12/05 08:51:34;;;;;;;10.50;5.03;;;;;;;-2.74;85.86;102672.44;10585290;28;20059;-77
2022/12/05 08:56:37;;;;;;;12.45;4.72;;;;;;;-2.77;86.10;102656.63;10610965;28;20035;-77
2022/12/05 09:01:43;;;;;;;12.15;5.72;;;;;;;-2.84;86.00;102668.91;10611389;28;20042;-79
2022/12/05 09:06:45;;;;;;;12.30;5.95;;;;;;;-2.86;86.42;102659.31;10611746;28;20413;-79
2022/12/05 09:11:49;;;;;;;16.55;5.75;;;;;;;-2.91;86.61;102640.94;10611153;28;20044;-78
2022/12/05 09:16:51;;;;;;;9.35;4.90;;;;;;;-2.84;86.59;102644.75;10589802;28;20048;-78
2022/12/05 09:21:55;;;;;;;12.77;6.03;;;;;;;-2.81;86.85;102647.13;10648597;27;20036;-79
2022/12/05 09:26:58;;;;;;;10.88;5.22;;;;;;;-2.81;86.73;102652.50;10616913;27;20434;-79
2022/12/05 09:32:00;;;;;;;10.48;5.55;;;;;;;-2.87;86.79;102654.94;10600806;28;20517;-79
2022/12/05 09:37:04;;;;;;;10.45;5.18;;;;;;;-2.83;86.68;102661.69;10619911;28;20505;-79
2022/12/05 09:42:27;;;;;;;11.45;5.03;;;;;;;-2.84;86.50;102655.47;10618425;28;20505;-79
2022/12/05 09:47:31;;;;;;;11.10;5.88;;;;;;;-2.74;86.54;102644.72;10618854;28;20050;-80
2022/12/05 09:52:37;;;;;;;8.30;4.15;;;;;;;-2.72;86.58;102647.28;10618687;28;20039;-79
2022/12/05 09:57:44;;;;;;;11.40;4.85;;;;;;;-2.60;86.60;102641.59;10582361;27;20035;-80
2022/12/05 10:03:18;;;;;;;13.93;4.73;;;;;;;-2.56;86.09;102645.69;10602474;27;20444;-79
2022/12/05 10:08:23;;;;;;;12.02;4.75;;;;;;;-2.74;85.88;102632.16;10628977;27;20035;-81
2022/12/05 10:13:31;;;;;;;12.85;5.47;;;;;;;-2.70;86.08;102627.31;10624195;27;20043;-82
2022/12/05 10:18:40;;;;;;;11.68;6.13;;;;;;;-2.78;85.83;102617.31;10610906;27;20044;-82
2022/12/05 10:23:58;;;;;;;9.00;4.53;;;;;;;-2.72;85.98;102609.66;10608964;27;20027;-83
2022/12/05 10:29:06;;;;;;;14.65;6.15;;;;;;;-2.69;85.99;102606.69;10592374;27;20535;-81
2022/12/05 10:34:22;;;;;;;12.45;5.72;;;;;;;-2.68;86.26;102601.16;10617875;27;20050;-83
2022/12/05 10:39:24;;;;;;;10.70;4.88;;;;;;;-2.62;86.20;102594.34;10594247;27;20056;-83
2022/12/05 10:44:26;;;;;;;9.43;4.63;;;;;;;-2.48;85.83;102588.47;10628067;27;20421;-83
2022/12/05 10:49:30;;;;;;;10.20;4.82;;;;;;;-2.56;85.74;102593.75;10610169;27;20046;-83
2022/12/05 10:54:39;;;;;;;10.07;5.53;;;;;;;-2.55;85.78;102579.34;10600599;27;20050;-80
2022/12/05 10:59:45;;;;;;;12.35;4.97;;;;;;;-2.55;85.78;102579.34;10598003;27;20046;-82
2022/12/05 11:04:47;;;;;;;11.18;6.03;;;;;;;-2.52;85.59;102582.56;10633829;27;20032;-84
2022/12/05 11:09:50;;;;;;;9.98;5.15;;;;;;;-2.60;86.10;102578.94;10597112;27;20043;-79
2022/12/05 11:15:04;;;;;;;8.15;5.15;;;;;;;-2.67;85.79;102577.81;10607431;27;20537;-82
2022/12/05 11:20:19;;;;;;;8.20;4.97;;;;;;;-2.61;86.19;102575.38;10601394;27;20040;-82
2022/12/05 11:25:39;;;;;;;13.88;6.18;;;;;;;-2.54;86.29;102564.91;10620747;27;20128;-84
2022/12/05 11:31:02;;;;;;;12.85;5.63;;;;;;;-2.41;86.14;102551.13;10618434;27;20055;-80
2022/12/05 11:36:17;;;;;;;10.68;5.80;;;;;;;-2.22;85.52;102549.16;10619132;27;20052;-81
2022/12/05 11:41:25;;;;;;;10.82;5.20;;;;;;;-2.21;85.15;102545.47;10639526;27;20592;-82
2022/12/05 11:46:33;;;;;;;9.90;5.63;;;;;;;-2.16;84.72;102537.81;10598399;27;20049;-82
2022/12/05 11:51:46;;;;;;;13.38;5.07;;;;;;;-2.15;85.00;102539.50;10602369;27;20046;-85
2022/12/05 11:56:53;;;;;;;8.20;3.92;;;;;;;-2.10;84.51;102541.72;10602025;27;20053;-85
2022/12/05 12:02:18;;;;;;;13.27;5.53;;;;;;;-2.03;84.29;102531.22;10590979;27;20048;-83
2022/12/05 12:07:32;;;;;;;10.98;5.32;;;;;;;-2.07;83.97;102527.16;10590841;27;20039;-85
2022/12/05 12:13:44;;;;;;;12.73;5.68;;;;;;;-2.13;84.10;102528.59;10640384;27;20035;-84
2022/12/05 12:19:16;;;;;;;9.30;5.57;;;;;;;-2.02;83.98;102522.16;10532366;28;20511;-84
2022/12/05 12:24:56;;;;;;;10.32;5.53;;;;;;;-1.87;84.26;102531.38;10554788;28;20058;-83
2022/12/05 12:30:12;;;;;;;11.82;6.05;;;;;;;-1.76;84.20;102522.22;10574342;28;20127;-83
2022/12/05 12:35:29;;;;;;;13.57;6.25;;;;;;;-1.74;83.90;102509.44;10573149;28;20426;-84
2022/12/05 12:40:55;;;;;;;11.07;5.10;;;;;;;-1.83;83.75;102489.72;10581150;28;20052;-84
2022/12/05 12:46:07;;;;;;;11.23;5.72;;;;;;;-1.89;83.33;102504.63;10595325;28;20079;-84
2022/12/05 12:51:18;;;;;;;11.73;5.00;;;;;;;-1.93;83.30;102499.69;10610827;28;20509;-84
2022/12/05 12:56:41;;;;;;;10.40;5.78;;;;;;;-1.77;83.22;102499.00;10588652;28;20042;-83
2022/12/05 13:02:10;;;;;;;13.95;5.60;;;;;;;-1.66;82.99;102496.09;10649813;27;20058;-82
2022/12/05 13:07:18;;;;;;;8.68;5.00;;;;;;;-1.69;82.33;102502.63;10609806;28;20043;-79
2022/12/05 13:12:26;;;;;;;12.27;4.78;;;;;;;-1.54;82.52;102506.47;10588903;28;20047;-81
2022/12/05 13:17:32;;;;;;;11.60;5.25;;;;;;;-1.55;81.93;102499.38;10594078;28;20433;-83
2022/12/05 13:22:35;;;;;;;10.88;5.78;;;;;;;-1.51;81.97;102491.84;10570133;28;20035;-81
2022/12/05 13:27:38;;;;;;;10.65;6.15;;;;;;;-1.60;81.81;102484.69;10595896;28;20039;-81
2022/12/05 13:32:41;;;;;;;15.63;7.20;;;;;;;-1.64;81.71;102478.78;10601836;28;20446;-83
2022/12/05 13:43:09;;;;;;;11.77;6.45;;;;;;;-1.90;82.33;102469.81;10625523;28;20046;-81
2022/12/05 13:48:25;;;;;;;12.25;6.13;;;;;;;-2.03;82.59;102472.88;10594073;28;20496;-80
2022/12/05 13:53:40;;;;;;;19.27;7.57;;;;;;;-1.95;82.61;102461.34;10591583;28;20043;-80
2022/12/05 13:58:50;;;;;;;11.95;6.63;;;;;;;-1.86;82.88;102457.75;10560025;28;20048;-80
2022/12/05 14:03:59;;;;;;;14.90;6.38;;;;;;;-1.90;82.57;102449.13;10592206;28;20051;-80
2022/12/05 14:09:02;;;;;;;14.13;6.85;;;;;;;-1.86;82.44;102447.81;10575633;28;20043;-80
2022/12/05 14:14:07;;;;;;;10.48;5.50;;;;;;;-1.78;82.40;102432.72;10575656;28;20044;-80
2022/12/05 14:19:24;;;;;;;14.80;6.15;;;;;;;-1.56;82.03;102434.94;10557451;28;20807;-81
2022/12/05 14:24:56;;;;;;;12.95;5.75;;;;;;;-1.68;81.83;102425.41;10541621;28;20059;-79
2022/12/05 14:30:15;;;;;;;10.93;6.68;;;;;;;-1.83;81.78;102430.53;10575112;28;20036;-80
2022/12/05 14:35:28;;;;;;;16.27;6.70;;;;;;;-1.83;82.04;102425.13;10590611;28;20059;-79
2022/12/05 14:40:33;;;;;;;15.07;7.25;;;;;;;-1.98;81.83;102424.00;10610272;27;20422;-82
2022/12/05 14:45:45;;;;;;;20.10;7.72;;;;;;;-2.22;82.06;102422.78;10617930;27;20051;-79
2022/12/05 14:50:50;;;;;;;15.27;8.20;;;;;;;-2.28;82.72;102425.22;10615406;28;20035;-80
2022/12/05 14:56:11;;;;;;;20.60;7.65;;;;;;;-2.30;83.49;102420.00;10582166;28;20202;-80
2022/12/05 15:01:18;;;;;;;14.85;7.38;;;;;;;-2.53;83.54;102405.34;10616263;28;20046;-80
2022/12/05 15:06:24;;;;;;;19.95;7.15;;;;;;;-2.37;83.76;102400.13;10599555;28;20046;-79
2022/12/05 15:11:30;;;;;;;14.70;7.97;;;;;;;-2.37;84.19;102386.69;10576203;28;20048;-80
2022/12/05 15:16:36;;;;;;;14.75;7.45;;;;;;;-2.35;84.86;102383.84;10571333;28;20508;-79
2022/12/05 15:21:42;;;;;;;17.95;8.05;;;;;;;-2.06;84.71;102373.69;10587219;28;20055;-80
2022/12/05 15:26:47;;;;;;;16.45;8.65;;;;;;;-2.06;84.59;102370.16;10591225;28;20513;-79
2022/12/05 15:32:06;;;;;;;15.20;7.05;;;;;;;-2.32;83.95;102375.47;10570836;28;20036;-79
2022/12/05 15:37:24;;;;;;;18.42;8.00;;;;;;;-2.07;84.38;102376.53;10559958;28;20039;-78
2022/12/05 15:42:36;;;;;;;;;;;;;;;-2.30;84.14;102362.69;10611799;27;20042;-83
2022/12/05 15:47:50;;;;;;;15.77;8.32;;;;;;;-2.03;83.77;102359.06;10617514;28;19919;-83
2022/12/05 15:53:03;;;;;;;14.52;7.35;;;;;;;-2.16;83.28;102359.47;10608032;27;20038;-82
2022/12/05 15:58:37;;;;;;;21.08;8.13;;;;;;;-2.31;83.09;102364.53;10618132;27;20054;-81
2022/12/05 16:03:51;;;;;;;15.27;7.22;;;;;;;-2.37;83.39;102359.78;10613113;27;20047;-82
2022/12/05 16:08:55;;;;;;;16.05;6.95;;;;;;;-2.58;82.93;102361.94;10623327;27;20040;-82
2022/12/05 16:14:02;;;;;;;14.70;7.13;;;;;;;-2.62;83.11;102371.28;10581933;28;20039;-82
2022/12/05 16:19:20;;;;;;;17.65;8.10;;;;;;;-2.43;83.55;102352.31;10619570;27;20035;-82
2022/12/05 16:24:29;;;;;;;15.55;7.25;;;;;;;-2.40;83.25;102343.97;10619843;27;20035;-81
2022/12/05 16:29:33;;;;;;;16.05;6.75;;;;;;;-2.49;83.15;102340.34;10616635;27;20082;-82
2022/12/05 16:34:35;;;;;;;16.67;8.13;;;;;;;-2.64;83.10;102349.94;10621598;27;20055;-83
2022/12/05 16:39:43;;;;;;;18.75;8.98;;;;;;;-2.79;83.30;102355.00;10603236;27;20047;-85
2022/12/05 16:44:45;;;;;;;21.23;9.18;;;;;;;-2.59;83.87;102350.34;10571094;28;20461;-83
2022/12/05 16:49:48;;;;;;;22.00;9.48;;;;;;;-2.47;84.00;102335.66;10606347;28;20047;-81
2022/12/05 16:54:51;;;;;;;18.58;9.15;;;;;;;-2.31;83.94;102328.75;10611491;28;20058;-82
2022/12/05 16:59:53;;;;;;;20.60;8.70;;;;;;;-2.47;83.69;102321.38;10609352;28;20043;-81
2022/12/05 17:04:55;;;;;;;17.77;8.57;;;;;;;-2.80;83.05;102312.16;10600723;28;20043;-81
2022/12/05 17:09:57;;;;;;;18.17;8.82;;;;;;;-2.76;83.63;102309.03;10579474;28;20043;-81
2022/12/05 17:15:04;;;;;;;19.80;8.70;;;;;;;-2.69;83.70;102303.06;10608074;28;20100;-82
2022/12/05 17:20:08;;;;;;;19.85;8.30;;;;;;;-2.69;83.85;102297.69;10548469;28;20052;-79
2022/12/05 17:25:22;;;;;;;19.77;9.15;;;;;;;-2.47;83.21;102294.50;10607623;28;20032;-82
2022/12/05 17:30:24;;;;;;;13.15;6.70;;;;;;;-2.33;83.22;102285.91;10581397;28;20233;-84
2022/12/05 17:35:32;;;;;;;18.70;8.85;;;;;;;-2.39;82.96;102283.00;10618084;28;20044;-83
2022/12/05 17:40:34;;;;;;;15.67;6.77;;;;;;;-2.57;82.97;102270.44;10618924;28;20524;-82
2022/12/05 17:45:37;;;;;;;13.68;6.53;;;;;;;-2.35;82.57;102262.84;10626850;28;20047;-80
2022/12/05 17:50:41;;;;;;;13.73;7.20;;;;;;;-2.36;82.57;102255.78;10625075;27;20046;-78
2022/12/05 17:55:46;;;;;;;17.60;7.47;;;;;;;-2.76;81.83;102251.78;10620743;27;20560;-81
2022/12/05 18:00:49;;;;;;;14.50;7.00;;;;;;;-2.93;82.96;102240.03;10613529;27;20048;-79
2022/12/05 18:05:51;;;;;;;14.25;7.22;;;;;;;-2.69;83.35;102238.56;10616250;27;20535;-80
2022/12/05 18:10:55;;;;;;;12.48;6.60;;;;;;;-2.50;82.88;102227.63;10628410;27;20043;-79
2022/12/05 18:15:57;;;;;;;11.07;5.50;;;;;;;-2.61;81.99;102223.34;10602888;28;20044;-81
2022/12/05 18:21:08;;;;;;;13.82;6.20;;;;;;;-2.38;82.62;102204.88;10607038;28;20535;-82
2022/12/05 18:26:12;;;;;;;15.73;7.63;;;;;;;-2.57;81.38;102192.50;10603343;28;20049;-79
2022/12/05 18:31:16;;;;;;;13.57;6.70;;;;;;;-2.86;81.92;102192.75;10614035;28;20062;-79
2022/12/05 18:36:43;;;;;;;11.80;5.93;;;;;;;-2.84;82.50;102197.97;10630491;28;20031;-83
2022/12/05 18:41:46;;;;;;;12.68;6.50;;;;;;;-3.24;82.40;102185.88;10593891;28;20058;-81
2022/12/05 18:46:48;;;;;;;13.50;7.32;;;;;;;-3.46;82.76;102184.47;10584096;27;20052;-80
2022/12/05 18:51:52;;;;;;;12.07;6.00;;;;;;;-3.62;83.44;102192.34;10620294;27;20056;-75
2022/12/05 18:56:55;;;;;;;12.50;5.60;;;;;;;-3.42;83.20;102196.59;10588686;28;20548;-78
2022/12/05 19:02:00;;;;;;;15.82;7.57;;;;;;;-3.30;83.77;102186.47;10629435;27;20039;-78
2022/12/05 19:07:02;;;;;;;9.02;5.35;;;;;;;-3.13;83.52;102176.72;10626465;27;20035;-79
2022/12/05 19:12:05;;;;;;;10.70;5.88;;;;;;;-3.07;83.06;102171.59;10606344;27;20057;-79
2022/12/05 19:17:07;;;;;;;11.48;5.93;;;;;;;-2.94;82.41;102163.16;10637224;27;20049;-77
2022/12/05 19:22:10;;;;;;;10.57;4.93;;;;;;;-2.91;81.90;102144.03;10625374;27;20039;-88
2022/12/05 19:27:12;;;;;;;6.00;3.10;;;;;;;-2.90;81.32;102135.00;10661088;27;20058;-84
2022/12/05 19:32:14;;;;;;;8.05;4.25;;;;;;;-3.20;80.60;102143.44;10627501;28;20047;-86
2022/12/05 19:37:16;;;;;;;6.85;4.93;;;;;;;-3.24;81.15;102134.88;10646089;27;20035;-84
2022/12/05 19:42:18;;;;;;;10.50;4.38;;;;;;;-3.15;81.35;102136.63;10632216;27;20057;-79
2022/12/05 19:47:20;;;;;;;11.10;5.53;;;;;;;-3.00;82.02;102130.69;10635718;27;20047;-84
2022/12/05 19:52:23;;;;;;;9.52;5.30;;;;;;;-2.97;81.87;102123.16;10627666;27;20542;-80
2022/12/05 19:57:25;;;;;;;11.98;4.85;;;;;;;-3.21;81.77;102090.75;10631433;27;20043;-86
2022/12/05 20:02:27;;;;;;;12.98;5.78;;;;;;;-3.47;81.88;102094.25;10651998;27;20047;-78
2022/12/05 20:07:29;;;;;;;10.43;5.13;;;;;;;-3.65;82.75;102101.41;10609143;27;20054;-77
2022/12/05 20:12:32;;;;;;;12.65;4.80;;;;;;;-3.80;82.52;102086.88;10642003;27;20043;-78
2022/12/05 20:17:34;;;;;;;8.35;4.90;;;;;;;-3.65;83.01;102085.31;10616103;27;20040;-78
2022/12/05 20:22:36;;;;;;;10.85;5.25;;;;;;;-3.82;82.66;102088.84;10587869;28;20046;-79
2022/12/05 20:27:39;;;;;;;8.55;4.07;;;;;;;-4.15;83.38;102067.06;10577819;28;20532;-82
2022/12/05 20:32:41;;;;;;;14.02;6.30;;;;;;;-3.67;83.55;102066.69;10584597;28;20047;-78
2022/12/05 20:37:43;;;;;;;9.85;4.13;;;;;;;-3.36;83.20;102053.75;10606331;28;20047;-78
2022/12/05 20:42:45;;;;;;;8.90;4.55;;;;;;;-3.67;81.80;102033.66;10627342;27;20051;-79
2022/12/05 20:47:48;;;;;;;10.65;5.57;;;;;;;-3.66;82.21;102030.84;10597996;28;20059;-78
2022/12/05 20:52:50;;;;;;;8.85;5.30;;;;;;;-3.76;82.03;102026.56;10605407;28;20055;-78
2022/12/05 20:57:52;;;;;;;9.27;5.80;;;;;;;-3.40;82.69;102025.53;10599349;28;20401;-79
2022/12/05 21:02:55;;;;;;;10.30;5.85;;;;;;;-3.22;82.16;102016.59;10610723;28;20039;-83
2022/12/05 21:07:57;;;;;;;10.23;5.72;;;;;;;-3.63;81.58;102013.63;10605818;28;20039;-79
2022/12/05 21:12:59;;;;;;;10.65;6.13;;;;;;;-3.80;82.75;101999.22;10609381;28;20054;-77
2022/12/05 21:18:02;;;;;;;13.50;6.78;;;;;;;-3.97;82.55;101998.22;10640184;27;20545;-77
2022/12/05 21:23:04;;;;;;;9.38;4.55;;;;;;;-4.18;83.47;101992.28;10633504;27;20039;-77
2022/12/05 21:28:06;;;;;;;10.15;5.22;;;;;;;-4.31;84.42;101986.47;10653354;27;20043;-77
2022/12/05 21:33:08;;;;;;;13.63;5.05;;;;;;;-4.38;84.57;101970.13;10629683;28;20475;-78
2022/12/05 21:38:11;;;;;;;11.07;4.95;;;;;;;-4.21;85.28;101970.31;10640934;27;20051;-77
2022/12/05 21:43:13;;;;;;;9.60;5.32;;;;;;;-4.39;85.33;101963.09;10616770;28;20448;-77
2022/12/05 21:48:15;;;;;;;9.70;4.93;;;;;;;-4.58;85.70;101947.16;10630322;28;20042;-76
2022/12/05 21:53:17;;;;;;;10.52;4.75;;;;;;;-4.40;86.04;101939.13;10627285;27;20047;-76
2022/12/05 21:58:19;;;;;;;11.10;5.88;;;;;;;-4.43;86.69;101920.69;10650654;27;20048;-75
2022/12/05 22:03:22;;;;;;;7.65;4.80;;;;;;;-4.43;86.11;101907.28;10648433;27;20137;-75
2022/12/05 22:08:24;;;;;;;7.93;4.80;;;;;;;-4.70;86.39;101890.25;10636152;27;20031;-75
2022/12/05 22:13:26;;;;;;;10.23;4.50;;;;;;;-4.51;86.29;101894.69;10621121;27;20436;-76
2022/12/05 22:18:29;;;;;;;7.80;4.20;;;;;;;-4.77;85.92;101877.66;10631934;27;20048;-75
2022/12/05 22:23:32;;;;;;;6.90;4.05;;;;;;;-4.95;85.17;101873.09;10643792;27;20043;-80
2022/12/05 22:28:34;;;;;;;6.80;3.67;;;;;;;-4.83;85.66;101857.69;10637274;27;20039;-77
2022/12/05 22:33:37;;;;;;;7.65;3.40;;;;;;;-4.65;85.49;101866.56;10621192;27;20428;-75
2022/12/05 22:38:42;;;;;;;6.38;4.05;;;;;;;-4.62;84.47;101854.72;10629591;27;20056;-77
2022/12/05 22:43:46;;;;;;;7.38;3.72;;;;;;;-4.94;83.18;101860.56;10625835;27;20054;-77
2022/12/05 22:48:50;;;;;;;7.20;3.40;;;;;;;-5.07;82.88;101854.72;10632563;27;20071;-77
2022/12/05 22:53:53;;;;;;;7.25;3.72;;;;;;;-4.52;83.32;101842.06;10622005;27;20044;-77
2022/12/05 22:58:57;;;;;;;7.80;3.60;;;;;;;-4.65;82.72;101826.41;10624618;27;20053;-77
2022/12/05 23:04:04;;;;;;;7.47;3.53;;;;;;;-4.71;82.03;101818.13;10593800;27;20143;-78
2022/12/05 23:09:08;;;;;;;5.00;3.20;;;;;;;-4.33;81.60;101811.63;10612873;27;20035;-80
2022/12/05 23:14:11;;;;;;;8.23;3.80;;;;;;;-4.47;80.51;101804.13;10610256;27;20414;-76
2022/12/05 23:19:13;;;;;;;5.57;3.00;;;;;;;-4.66;80.45;101797.94;10610386;27;20161;-79
2022/12/05 23:24:15;;;;;;;5.15;3.05;;;;;;;-4.57;80.64;101777.41;10622210;27;20047;-79
2022/12/05 23:29:17;;;;;;;3.70;2.55;;;;;;;-4.43;79.98;101768.00;10628270;27;20469;-78